sensor_id;sensor_type;location;lat;lon;timestamp;P1;durP1;ratioP1;P2;durP2;ratioP2
22191;SDS011;11261;52.456;10.850;2023-07-31T00:01:30;3.95;;;1.48;;
22191;SDS011;11261;52.456;10.850;2023-07-31T00:03:59;3.15;;;1.30;;
22191;SDS011;11261;52.456;10.850;2023-07-31T00:06:27;2.83;;;1.38;;
22191;SDS011;11261;52.456;10.850;2023-07-31T00:08:55;3.25;;;1.38;;
22191;SDS011;11261;52.456;10.850;2023-07-31T00:11:25;4.43;;;2.38;;
22191;SDS011;11261;52.456;10.850;2023-07-31T00:13:54;5.20;;;1.83;;
22191;SDS011;11261;52.456;10.850;2023-07-31T00:16:22;3.22;;;1.02;;
22191;SDS011;11261;52.456;10.850;2023-07-31T00:18:50;4.22;;;1.27;;
22191;SDS011;11261;52.456;10.850;2023-07-31T00:21:18;1.23;;;1.00;;
22191;SDS011;11261;52.456;10.850;2023-07-31T00:23:47;1.67;;;0.88;;
22191;SDS011;11261;52.456;10.850;2023-07-31T00:26:15;2.53;;;1.00;;
22191;SDS011;11261;52.456;10.850;2023-07-31T00:28:45;3.38;;;1.40;;
22191;SDS011;11261;52.456;10.850;2023-07-31T00:31:13;2.92;;;1.33;;
22191;SDS011;11261;52.456;10.850;2023-07-31T00:33:41;1.95;;;1.00;;
22191;SDS011;11261;52.456;10.850;2023-07-31T00:36:09;1.20;;;0.80;;
22191;SDS011;11261;52.456;10.850;2023-07-31T00:38:38;1.77;;;1.00;;
22191;SDS011;11261;52.456;10.850;2023-07-31T00:41:06;3.60;;;1.67;;
22191;SDS011;11261;52.456;10.850;2023-07-31T00:43:34;5.10;;;1.23;;
22191;SDS011;11261;52.456;10.850;2023-07-31T00:46:04;1.35;;;0.90;;
22191;SDS011;11261;52.456;10.850;2023-07-31T00:48:32;1.85;;;0.90;;
22191;SDS011;11261;52.456;10.850;2023-07-31T00:51:02;1.70;;;0.98;;
22191;SDS011;11261;52.456;10.850;2023-07-31T00:53:30;1.40;;;0.82;;
22191;SDS011;11261;52.456;10.850;2023-07-31T00:56:00;2.70;;;1.15;;
22191;SDS011;11261;52.456;10.850;2023-07-31T00:58:28;1.55;;;1.10;;
22191;SDS011;11261;52.456;10.850;2023-07-31T01:00:56;1.90;;;1.10;;
22191;SDS011;11261;52.456;10.850;2023-07-31T01:03:26;2.25;;;1.08;;
22191;SDS011;11261;52.456;10.850;2023-07-31T01:05:56;3.35;;;1.25;;
22191;SDS011;11261;52.456;10.850;2023-07-31T01:08:36;3.03;;;1.20;;
22191;SDS011;11261;52.456;10.850;2023-07-31T01:11:10;4.63;;;1.10;;
22191;SDS011;11261;52.456;10.850;2023-07-31T01:13:43;2.20;;;1.35;;
22191;SDS011;11261;52.456;10.850;2023-07-31T01:16:12;3.55;;;1.40;;
22191;SDS011;11261;52.456;10.850;2023-07-31T01:18:42;4.78;;;1.33;;
22191;SDS011;11261;52.456;10.850;2023-07-31T01:21:16;2.50;;;1.20;;
22191;SDS011;11261;52.456;10.850;2023-07-31T01:23:52;2.63;;;1.63;;
22191;SDS011;11261;52.456;10.850;2023-07-31T01:26:39;1.95;;;1.20;;
22191;SDS011;11261;52.456;10.850;2023-07-31T01:29:15;1.73;;;0.98;;
22191;SDS011;11261;52.456;10.850;2023-07-31T01:31:51;1.88;;;1.20;;
22191;SDS011;11261;52.456;10.850;2023-07-31T01:34:22;5.13;;;1.15;;
22191;SDS011;11261;52.456;10.850;2023-07-31T01:36:51;3.92;;;1.40;;
22191;SDS011;11261;52.456;10.850;2023-07-31T01:39:19;3.08;;;1.15;;
22191;SDS011;11261;52.456;10.850;2023-07-31T01:41:49;2.05;;;1.00;;
22191;SDS011;11261;52.456;10.850;2023-07-31T01:44:18;3.03;;;1.13;;
22191;SDS011;11261;52.456;10.850;2023-07-31T01:46:46;1.50;;;1.02;;
22191;SDS011;11261;52.456;10.850;2023-07-31T01:49:14;2.58;;;1.33;;
22191;SDS011;11261;52.456;10.850;2023-07-31T01:51:43;2.45;;;1.10;;
22191;SDS011;11261;52.456;10.850;2023-07-31T01:54:11;2.83;;;1.20;;
22191;SDS011;11261;52.456;10.850;2023-07-31T01:56:39;2.05;;;0.90;;
22191;SDS011;11261;52.456;10.850;2023-07-31T01:59:09;2.92;;;1.10;;
22191;SDS011;11261;52.456;10.850;2023-07-31T02:01:38;2.47;;;1.10;;
22191;SDS011;11261;52.456;10.850;2023-07-31T02:04:06;2.00;;;1.20;;
22191;SDS011;11261;52.456;10.850;2023-07-31T02:06:34;3.83;;;1.23;;
22191;SDS011;11261;52.456;10.850;2023-07-31T02:09:03;5.82;;;1.40;;
22191;SDS011;11261;52.456;10.850;2023-07-31T02:11:31;3.90;;;1.58;;
22191;SDS011;11261;52.456;10.850;2023-07-31T02:14:00;1.50;;;1.10;;
22191;SDS011;11261;52.456;10.850;2023-07-31T02:16:29;3.88;;;1.42;;
22191;SDS011;11261;52.456;10.850;2023-07-31T02:18:57;2.72;;;1.20;;
22191;SDS011;11261;52.456;10.850;2023-07-31T02:21:26;2.67;;;1.33;;
22191;SDS011;11261;52.456;10.850;2023-07-31T02:23:54;1.65;;;1.20;;
22191;SDS011;11261;52.456;10.850;2023-07-31T02:26:23;5.20;;;1.40;;
22191;SDS011;11261;52.456;10.850;2023-07-31T02:28:51;1.95;;;1.30;;
22191;SDS011;11261;52.456;10.850;2023-07-31T02:31:20;5.50;;;1.25;;
22191;SDS011;11261;52.456;10.850;2023-07-31T02:33:50;2.10;;;1.20;;
22191;SDS011;11261;52.456;10.850;2023-07-31T02:36:18;3.58;;;1.40;;
22191;SDS011;11261;52.456;10.850;2023-07-31T02:38:46;2.70;;;1.67;;
22191;SDS011;11261;52.456;10.850;2023-07-31T02:41:15;2.22;;;1.00;;
22191;SDS011;11261;52.456;10.850;2023-07-31T02:43:43;2.78;;;1.40;;
22191;SDS011;11261;52.456;10.850;2023-07-31T02:46:12;2.70;;;1.30;;
22191;SDS011;11261;52.456;10.850;2023-07-31T02:48:40;2.13;;;1.30;;
22191;SDS011;11261;52.456;10.850;2023-07-31T02:51:10;5.32;;;1.52;;
22191;SDS011;11261;52.456;10.850;2023-07-31T02:53:38;2.38;;;1.35;;
22191;SDS011;11261;52.456;10.850;2023-07-31T02:56:07;5.35;;;1.20;;
22191;SDS011;11261;52.456;10.850;2023-07-31T02:58:35;2.47;;;1.10;;
22191;SDS011;11261;52.456;10.850;2023-07-31T03:01:03;3.97;;;1.10;;
22191;SDS011;11261;52.456;10.850;2023-07-31T03:03:32;1.77;;;1.25;;
22191;SDS011;11261;52.456;10.850;2023-07-31T03:06:00;3.38;;;0.98;;
22191;SDS011;11261;52.456;10.850;2023-07-31T03:08:30;2.25;;;1.02;;
22191;SDS011;11261;52.456;10.850;2023-07-31T03:10:59;2.97;;;1.30;;
22191;SDS011;11261;52.456;10.850;2023-07-31T03:13:27;1.63;;;0.88;;
22191;SDS011;11261;52.456;10.850;2023-07-31T03:15:55;2.95;;;0.73;;
22191;SDS011;11261;52.456;10.850;2023-07-31T03:18:24;1.95;;;0.98;;
22191;SDS011;11261;52.456;10.850;2023-07-31T03:20:52;2.47;;;1.02;;
22191;SDS011;11261;52.456;10.850;2023-07-31T03:23:20;1.70;;;1.02;;
22191;SDS011;11261;52.456;10.850;2023-07-31T03:25:56;1.55;;;0.80;;
22191;SDS011;11261;52.456;10.850;2023-07-31T03:28:25;2.72;;;0.93;;
22191;SDS011;11261;52.456;10.850;2023-07-31T03:30:53;1.95;;;1.00;;
22191;SDS011;11261;52.456;10.850;2023-07-31T03:33:22;2.22;;;0.90;;
22191;SDS011;11261;52.456;10.850;2023-07-31T03:35:50;2.17;;;1.00;;
22191;SDS011;11261;52.456;10.850;2023-07-31T03:38:19;1.70;;;1.00;;
22191;SDS011;11261;52.456;10.850;2023-07-31T03:40:47;2.90;;;1.15;;
22191;SDS011;11261;52.456;10.850;2023-07-31T03:43:17;1.25;;;0.90;;
22191;SDS011;11261;52.456;10.850;2023-07-31T03:45:45;3.08;;;0.90;;
22191;SDS011;11261;52.456;10.850;2023-07-31T03:48:13;0.85;;;0.80;;
22191;SDS011;11261;52.456;10.850;2023-07-31T03:50:42;1.48;;;0.80;;
22191;SDS011;11261;52.456;10.850;2023-07-31T03:53:10;2.25;;;0.95;;
22191;SDS011;11261;52.456;10.850;2023-07-31T03:55:39;1.30;;;1.10;;
22191;SDS011;11261;52.456;10.850;2023-07-31T03:58:07;2.80;;;1.10;;
22191;SDS011;11261;52.456;10.850;2023-07-31T04:00:36;1.65;;;0.98;;
22191;SDS011;11261;52.456;10.850;2023-07-31T04:03:05;2.10;;;0.90;;
22191;SDS011;11261;52.456;10.850;2023-07-31T04:05:33;3.33;;;1.10;;
22191;SDS011;11261;52.456;10.850;2023-07-31T04:08:05;1.58;;;0.80;;
22191;SDS011;11261;52.456;10.850;2023-07-31T04:10:33;1.38;;;0.90;;
22191;SDS011;11261;52.456;10.850;2023-07-31T04:13:02;1.17;;;0.90;;
22191;SDS011;11261;52.456;10.850;2023-07-31T04:15:30;1.63;;;0.95;;
22191;SDS011;11261;52.456;10.850;2023-07-31T04:18:00;1.98;;;1.00;;
22191;SDS011;11261;52.456;10.850;2023-07-31T04:20:28;1.75;;;0.90;;
22191;SDS011;11261;52.456;10.850;2023-07-31T04:22:56;1.27;;;1.00;;
22191;SDS011;11261;52.456;10.850;2023-07-31T04:25:25;3.22;;;0.98;;
22191;SDS011;11261;52.456;10.850;2023-07-31T04:27:53;1.10;;;0.82;;
22191;SDS011;11261;52.456;10.850;2023-07-31T04:30:21;3.00;;;0.90;;
22191;SDS011;11261;52.456;10.850;2023-07-31T04:32:49;2.60;;;1.13;;
22191;SDS011;11261;52.456;10.850;2023-07-31T04:35:19;2.17;;;0.93;;
22191;SDS011;11261;52.456;10.850;2023-07-31T04:37:47;1.70;;;1.10;;
22191;SDS011;11261;52.456;10.850;2023-07-31T04:40:16;1.30;;;0.88;;
22191;SDS011;11261;52.456;10.850;2023-07-31T04:42:44;2.75;;;1.00;;
22191;SDS011;11261;52.456;10.850;2023-07-31T04:45:12;1.63;;;0.80;;
22191;SDS011;11261;52.456;10.850;2023-07-31T04:47:41;1.95;;;0.90;;
22191;SDS011;11261;52.456;10.850;2023-07-31T04:50:10;2.08;;;1.00;;
22191;SDS011;11261;52.456;10.850;2023-07-31T04:52:39;3.55;;;1.00;;
22191;SDS011;11261;52.456;10.850;2023-07-31T04:55:08;2.25;;;0.70;;
22191;SDS011;11261;52.456;10.850;2023-07-31T04:57:36;1.60;;;0.82;;
22191;SDS011;11261;52.456;10.850;2023-07-31T05:00:05;2.20;;;0.85;;
22191;SDS011;11261;52.456;10.850;2023-07-31T05:02:34;2.33;;;0.90;;
22191;SDS011;11261;52.456;10.850;2023-07-31T05:05:03;1.20;;;0.77;;
22191;SDS011;11261;52.456;10.850;2023-07-31T05:07:31;1.13;;;0.88;;
22191;SDS011;11261;52.456;10.850;2023-07-31T05:10:01;0.70;;;0.70;;
22191;SDS011;11261;52.456;10.850;2023-07-31T05:12:30;2.33;;;0.82;;
22191;SDS011;11261;52.456;10.850;2023-07-31T05:14:58;1.00;;;0.80;;
22191;SDS011;11261;52.456;10.850;2023-07-31T05:17:26;0.93;;;0.80;;
22191;SDS011;11261;52.456;10.850;2023-07-31T05:19:54;1.48;;;0.80;;
22191;SDS011;11261;52.456;10.850;2023-07-31T05:22:23;1.38;;;0.80;;
22191;SDS011;11261;52.456;10.850;2023-07-31T05:24:51;1.05;;;0.80;;
22191;SDS011;11261;52.456;10.850;2023-07-31T05:27:22;4.93;;;1.13;;
22191;SDS011;11261;52.456;10.850;2023-07-31T05:29:50;3.35;;;0.90;;
22191;SDS011;11261;52.456;10.850;2023-07-31T05:32:18;1.17;;;0.60;;
22191;SDS011;11261;52.456;10.850;2023-07-31T05:34:47;1.52;;;0.80;;
22191;SDS011;11261;52.456;10.850;2023-07-31T05:37:18;0.70;;;0.70;;
22191;SDS011;11261;52.456;10.850;2023-07-31T05:39:46;2.13;;;0.82;;
22191;SDS011;11261;52.456;10.850;2023-07-31T05:42:14;1.20;;;0.90;;
22191;SDS011;11261;52.456;10.850;2023-07-31T05:44:44;1.45;;;0.77;;
22191;SDS011;11261;52.456;10.850;2023-07-31T05:47:13;2.17;;;0.88;;
22191;SDS011;11261;52.456;10.850;2023-07-31T05:49:41;0.90;;;0.80;;
22191;SDS011;11261;52.456;10.850;2023-07-31T05:52:10;0.80;;;0.80;;
22191;SDS011;11261;52.456;10.850;2023-07-31T05:54:38;0.70;;;0.60;;
22191;SDS011;11261;52.456;10.850;2023-07-31T05:57:06;2.05;;;0.68;;
22191;SDS011;11261;52.456;10.850;2023-07-31T05:59:35;0.80;;;0.80;;
22191;SDS011;11261;52.456;10.850;2023-07-31T06:02:05;1.27;;;0.80;;
22191;SDS011;11261;52.456;10.850;2023-07-31T06:04:33;1.63;;;0.88;;
22191;SDS011;11261;52.456;10.850;2023-07-31T06:07:02;0.93;;;0.75;;
22191;SDS011;11261;52.456;10.850;2023-07-31T06:09:31;1.83;;;0.80;;
22191;SDS011;11261;52.456;10.850;2023-07-31T06:11:59;1.05;;;0.73;;
22191;SDS011;11261;52.456;10.850;2023-07-31T06:14:27;1.20;;;0.80;;
22191;SDS011;11261;52.456;10.850;2023-07-31T06:16:56;1.48;;;0.95;;
22191;SDS011;11261;52.456;10.850;2023-07-31T06:19:25;3.60;;;1.00;;
22191;SDS011;11261;52.456;10.850;2023-07-31T06:21:54;1.27;;;0.80;;
22191;SDS011;11261;52.456;10.850;2023-07-31T06:24:22;2.22;;;0.70;;
22191;SDS011;11261;52.456;10.850;2023-07-31T06:26:50;1.20;;;0.88;;
22191;SDS011;11261;52.456;10.850;2023-07-31T06:29:18;1.77;;;0.90;;
22191;SDS011;11261;52.456;10.850;2023-07-31T06:31:47;1.50;;;0.70;;
22191;SDS011;11261;52.456;10.850;2023-07-31T06:34:15;0.95;;;0.77;;
22191;SDS011;11261;52.456;10.850;2023-07-31T06:36:45;1.15;;;0.65;;
22191;SDS011;11261;52.456;10.850;2023-07-31T06:39:13;1.15;;;0.73;;
22191;SDS011;11261;52.456;10.850;2023-07-31T06:41:41;1.90;;;0.90;;
22191;SDS011;11261;52.456;10.850;2023-07-31T06:44:11;1.02;;;0.80;;
22191;SDS011;11261;52.456;10.850;2023-07-31T06:46:40;2.25;;;0.90;;
22191;SDS011;11261;52.456;10.850;2023-07-31T06:49:08;1.38;;;0.80;;
22191;SDS011;11261;52.456;10.850;2023-07-31T06:51:37;1.50;;;0.90;;
22191;SDS011;11261;52.456;10.850;2023-07-31T06:54:07;2.45;;;1.02;;
22191;SDS011;11261;52.456;10.850;2023-07-31T06:56:35;1.02;;;0.93;;
22191;SDS011;11261;52.456;10.850;2023-07-31T06:59:06;2.83;;;1.35;;
22191;SDS011;11261;52.456;10.850;2023-07-31T07:01:35;3.20;;;1.20;;
22191;SDS011;11261;52.456;10.850;2023-07-31T07:04:03;5.10;;;3.05;;
22191;SDS011;11261;52.456;10.850;2023-07-31T07:06:32;2.17;;;1.20;;
22191;SDS011;11261;52.456;10.850;2023-07-31T07:09:00;2.08;;;1.10;;
22191;SDS011;11261;52.456;10.850;2023-07-31T07:11:29;3.40;;;1.50;;
22191;SDS011;11261;52.456;10.850;2023-07-31T07:13:58;2.72;;;1.42;;
22191;SDS011;11261;52.456;10.850;2023-07-31T07:16:28;4.22;;;1.70;;
22191;SDS011;11261;52.456;10.850;2023-07-31T07:18:56;3.03;;;1.40;;
22191;SDS011;11261;52.456;10.850;2023-07-31T07:21:30;2.38;;;1.80;;
22191;SDS011;11261;52.456;10.850;2023-07-31T07:23:58;3.50;;;2.00;;
22191;SDS011;11261;52.456;10.850;2023-07-31T07:26:26;4.82;;;2.30;;
22191;SDS011;11261;52.456;10.850;2023-07-31T07:28:56;2.47;;;1.63;;
22191;SDS011;11261;52.456;10.850;2023-07-31T07:31:27;4.25;;;1.88;;
22191;SDS011;11261;52.456;10.850;2023-07-31T07:33:55;3.00;;;1.90;;
22191;SDS011;11261;52.456;10.850;2023-07-31T07:36:24;4.50;;;2.20;;
22191;SDS011;11261;52.456;10.850;2023-07-31T07:38:52;2.85;;;2.00;;
22191;SDS011;11261;52.456;10.850;2023-07-31T07:41:20;3.10;;;2.28;;
22191;SDS011;11261;52.456;10.850;2023-07-31T07:43:48;3.97;;;2.40;;
22191;SDS011;11261;52.456;10.850;2023-07-31T07:46:19;4.78;;;2.72;;
22191;SDS011;11261;52.456;10.850;2023-07-31T07:48:47;2.53;;;1.60;;
22191;SDS011;11261;52.456;10.850;2023-07-31T07:51:15;5.47;;;2.88;;
22191;SDS011;11261;52.456;10.850;2023-07-31T07:53:44;4.43;;;2.53;;
22191;SDS011;11261;52.456;10.850;2023-07-31T07:56:12;6.05;;;3.05;;
22191;SDS011;11261;52.456;10.850;2023-07-31T07:58:40;5.25;;;3.53;;
22191;SDS011;11261;52.456;10.850;2023-07-31T08:01:08;7.63;;;3.67;;
22191;SDS011;11261;52.456;10.850;2023-07-31T08:03:38;6.15;;;4.07;;
22191;SDS011;11261;52.456;10.850;2023-07-31T08:06:06;5.57;;;2.92;;
22191;SDS011;11261;52.456;10.850;2023-07-31T08:08:35;8.57;;;3.83;;
22191;SDS011;11261;52.456;10.850;2023-07-31T08:11:03;8.05;;;3.65;;
22191;SDS011;11261;52.456;10.850;2023-07-31T08:13:32;7.25;;;4.25;;
22191;SDS011;11261;52.456;10.850;2023-07-31T08:16:03;7.03;;;3.42;;
22191;SDS011;11261;52.456;10.850;2023-07-31T08:18:31;8.13;;;4.30;;
22191;SDS011;11261;52.456;10.850;2023-07-31T08:21:02;7.15;;;4.68;;
22191;SDS011;11261;52.456;10.850;2023-07-31T08:23:30;9.88;;;4.82;;
22191;SDS011;11261;52.456;10.850;2023-07-31T08:25:59;6.13;;;4.13;;
22191;SDS011;11261;52.456;10.850;2023-07-31T08:28:27;9.25;;;4.78;;
22191;SDS011;11261;52.456;10.850;2023-07-31T08:30:55;10.55;;;5.40;;
22191;SDS011;11261;52.456;10.850;2023-07-31T08:33:24;8.45;;;4.25;;
22191;SDS011;11261;52.456;10.850;2023-07-31T08:35:53;9.57;;;4.75;;
22191;SDS011;11261;52.456;10.850;2023-07-31T08:38:23;7.05;;;5.18;;
22191;SDS011;11261;52.456;10.850;2023-07-31T08:40:51;9.80;;;4.45;;
22191;SDS011;11261;52.456;10.850;2023-07-31T08:43:20;9.63;;;4.25;;
22191;SDS011;11261;52.456;10.850;2023-07-31T08:45:52;9.07;;;4.68;;
22191;SDS011;11261;52.456;10.850;2023-07-31T08:48:21;7.18;;;4.55;;
22191;SDS011;11261;52.456;10.850;2023-07-31T08:50:51;10.10;;;4.88;;
22191;SDS011;11261;52.456;10.850;2023-07-31T08:53:19;7.50;;;4.25;;
22191;SDS011;11261;52.456;10.850;2023-07-31T08:55:49;7.60;;;4.70;;
22191;SDS011;11261;52.456;10.850;2023-07-31T08:58:19;11.38;;;4.97;;
22191;SDS011;11261;52.456;10.850;2023-07-31T09:00:48;8.93;;;4.72;;
22191;SDS011;11261;52.456;10.850;2023-07-31T09:03:20;5.45;;;3.20;;
22191;SDS011;11261;52.456;10.850;2023-07-31T09:05:51;7.63;;;4.10;;
22191;SDS011;11261;52.456;10.850;2023-07-31T09:08:21;8.65;;;4.07;;
22191;SDS011;11261;52.456;10.850;2023-07-31T09:10:51;7.22;;;4.03;;
22191;SDS011;11261;52.456;10.850;2023-07-31T09:13:21;7.00;;;1.95;;
22191;SDS011;11261;52.456;10.850;2023-07-31T09:15:49;9.35;;;3.63;;
22191;SDS011;11261;52.456;10.850;2023-07-31T09:18:18;8.20;;;4.00;;
22191;SDS011;11261;52.456;10.850;2023-07-31T09:20:59;8.00;;;3.75;;
22191;SDS011;11261;52.456;10.850;2023-07-31T09:23:39;5.53;;;2.03;;
22191;SDS011;11261;52.456;10.850;2023-07-31T09:26:10;12.02;;;4.53;;
22191;SDS011;11261;52.456;10.850;2023-07-31T09:28:40;9.13;;;2.90;;
22191;SDS011;11261;52.456;10.850;2023-07-31T09:31:08;8.57;;;4.18;;
22191;SDS011;11261;52.456;10.850;2023-07-31T09:33:39;5.32;;;2.65;;
22191;SDS011;11261;52.456;10.850;2023-07-31T09:36:23;5.95;;;3.17;;
22191;SDS011;11261;52.456;10.850;2023-07-31T09:38:51;8.13;;;3.55;;
22191;SDS011;11261;52.456;10.850;2023-07-31T09:41:21;6.90;;;3.33;;
22191;SDS011;11261;52.456;10.850;2023-07-31T09:43:52;7.07;;;4.20;;
22191;SDS011;11261;52.456;10.850;2023-07-31T09:46:22;9.63;;;3.80;;
22191;SDS011;11261;52.456;10.850;2023-07-31T09:49:02;5.30;;;3.00;;
22191;SDS011;11261;52.456;10.850;2023-07-31T09:51:35;10.35;;;3.58;;
22191;SDS011;11261;52.456;10.850;2023-07-31T09:54:09;5.38;;;2.17;;
22191;SDS011;11261;52.456;10.850;2023-07-31T09:56:42;8.32;;;3.75;;
22191;SDS011;11261;52.456;10.850;2023-07-31T09:59:11;5.32;;;2.70;;
22191;SDS011;11261;52.456;10.850;2023-07-31T10:01:41;6.15;;;3.00;;
22191;SDS011;11261;52.456;10.850;2023-07-31T10:04:11;6.18;;;3.40;;
22191;SDS011;11261;52.456;10.850;2023-07-31T10:06:40;5.88;;;3.38;;
22191;SDS011;11261;52.456;10.850;2023-07-31T10:09:11;8.70;;;3.10;;
22191;SDS011;11261;52.456;10.850;2023-07-31T10:11:47;6.25;;;3.38;;
22191;SDS011;11261;52.456;10.850;2023-07-31T10:14:23;5.25;;;3.10;;
22191;SDS011;11261;52.456;10.850;2023-07-31T10:16:53;5.93;;;2.85;;
22191;SDS011;11261;52.456;10.850;2023-07-31T10:19:22;5.43;;;2.80;;
22191;SDS011;11261;52.456;10.850;2023-07-31T10:21:50;5.75;;;3.03;;
22191;SDS011;11261;52.456;10.850;2023-07-31T10:24:19;6.15;;;3.20;;
22191;SDS011;11261;52.456;10.850;2023-07-31T10:26:49;5.32;;;2.70;;
22191;SDS011;11261;52.456;10.850;2023-07-31T10:29:20;4.45;;;2.40;;
22191;SDS011;11261;52.456;10.850;2023-07-31T10:31:50;4.03;;;2.58;;
22191;SDS011;11261;52.456;10.850;2023-07-31T10:34:20;3.85;;;2.08;;
22191;SDS011;11261;52.456;10.850;2023-07-31T10:36:48;4.50;;;2.40;;
22191;SDS011;11261;52.456;10.850;2023-07-31T10:39:35;3.92;;;2.15;;
22191;SDS011;11261;52.456;10.850;2023-07-31T10:42:11;7.97;;;2.10;;
22191;SDS011;11261;52.456;10.850;2023-07-31T10:44:43;5.18;;;2.22;;
22191;SDS011;11261;52.456;10.850;2023-07-31T10:47:14;2.70;;;1.77;;
22191;SDS011;11261;52.456;10.850;2023-07-31T10:49:44;6.53;;;2.22;;
22191;SDS011;11261;52.456;10.850;2023-07-31T10:52:16;3.45;;;1.80;;
22191;SDS011;11261;52.456;10.850;2023-07-31T10:57:46;4.38;;;1.83;;
22191;SDS011;11261;52.456;10.850;2023-07-31T11:00:18;5.00;;;2.30;;
22191;SDS011;11261;52.456;10.850;2023-07-31T11:03:02;3.67;;;2.00;;
22191;SDS011;11261;52.456;10.850;2023-07-31T11:05:45;4.53;;;2.20;;
22191;SDS011;11261;52.456;10.850;2023-07-31T11:08:20;4.10;;;2.60;;
22191;SDS011;11261;52.456;10.850;2023-07-31T11:10:50;2.90;;;2.00;;
22191;SDS011;11261;52.456;10.850;2023-07-31T11:13:34;3.63;;;2.22;;
22191;SDS011;11261;52.456;10.850;2023-07-31T11:16:08;3.75;;;2.38;;
22191;SDS011;11261;52.456;10.850;2023-07-31T11:18:38;5.05;;;2.33;;
22191;SDS011;11261;52.456;10.850;2023-07-31T11:21:07;4.15;;;2.45;;
22191;SDS011;11261;52.456;10.850;2023-07-31T11:23:36;5.47;;;2.17;;
22191;SDS011;11261;52.456;10.850;2023-07-31T11:26:05;3.55;;;2.22;;
22191;SDS011;11261;52.456;10.850;2023-07-31T11:28:35;4.55;;;2.35;;
22191;SDS011;11261;52.456;10.850;2023-07-31T11:31:05;3.15;;;2.10;;
22191;SDS011;11261;52.456;10.850;2023-07-31T11:33:36;2.97;;;2.15;;
22191;SDS011;11261;52.456;10.850;2023-07-31T11:36:04;3.67;;;1.48;;
22191;SDS011;11261;52.456;10.850;2023-07-31T11:38:33;3.17;;;1.90;;
22191;SDS011;11261;52.456;10.850;2023-07-31T11:41:03;4.60;;;2.10;;
22191;SDS011;11261;52.456;10.850;2023-07-31T11:43:31;2.95;;;1.80;;
22191;SDS011;11261;52.456;10.850;2023-07-31T11:46:01;4.30;;;1.73;;
22191;SDS011;11261;52.456;10.850;2023-07-31T11:48:31;1.95;;;1.38;;
22191;SDS011;11261;52.456;10.850;2023-07-31T11:51:02;3.20;;;1.85;;
22191;SDS011;11261;52.456;10.850;2023-07-31T11:53:33;4.13;;;1.58;;
22191;SDS011;11261;52.456;10.850;2023-07-31T11:56:05;3.10;;;1.70;;
22191;SDS011;11261;52.456;10.850;2023-07-31T11:58:37;2.30;;;1.40;;
22191;SDS011;11261;52.456;10.850;2023-07-31T12:01:09;1.38;;;1.13;;
22191;SDS011;11261;52.456;10.850;2023-07-31T12:03:39;2.83;;;1.70;;
22191;SDS011;11261;52.456;10.850;2023-07-31T12:06:09;4.38;;;1.60;;
22191;SDS011;11261;52.456;10.850;2023-07-31T12:08:38;2.60;;;1.98;;
22191;SDS011;11261;52.456;10.850;2023-07-31T12:11:07;3.03;;;1.63;;
22191;SDS011;11261;52.456;10.850;2023-07-31T12:13:37;2.33;;;1.50;;
22191;SDS011;11261;52.456;10.850;2023-07-31T12:16:05;2.15;;;1.60;;
22191;SDS011;11261;52.456;10.850;2023-07-31T12:18:35;1.52;;;1.05;;
22191;SDS011;11261;52.456;10.850;2023-07-31T12:21:05;3.55;;;1.70;;
22191;SDS011;11261;52.456;10.850;2023-07-31T12:23:37;1.67;;;1.00;;
22191;SDS011;11261;52.456;10.850;2023-07-31T12:26:08;3.22;;;1.52;;
22191;SDS011;11261;52.456;10.850;2023-07-31T12:28:40;2.15;;;1.30;;
22191;SDS011;11261;52.456;10.850;2023-07-31T12:31:09;2.20;;;1.85;;
22191;SDS011;11261;52.456;10.850;2023-07-31T12:33:40;2.63;;;1.50;;
22191;SDS011;11261;52.456;10.850;2023-07-31T12:36:10;2.55;;;1.33;;
22191;SDS011;11261;52.456;10.850;2023-07-31T12:38:39;2.33;;;1.42;;
22191;SDS011;11261;52.456;10.850;2023-07-31T12:41:07;1.77;;;1.27;;
22191;SDS011;11261;52.456;10.850;2023-07-31T12:43:36;3.05;;;1.60;;
22191;SDS011;11261;52.456;10.850;2023-07-31T12:46:06;2.60;;;1.27;;
22191;SDS011;11261;52.456;10.850;2023-07-31T12:48:35;3.75;;;1.67;;
22191;SDS011;11261;52.456;10.850;2023-07-31T12:51:05;2.10;;;0.85;;
22191;SDS011;11261;52.456;10.850;2023-07-31T12:53:34;3.42;;;1.48;;
22191;SDS011;11261;52.456;10.850;2023-07-31T12:56:03;2.25;;;1.50;;
22191;SDS011;11261;52.456;10.850;2023-07-31T12:58:31;2.13;;;1.30;;
22191;SDS011;11261;52.456;10.850;2023-07-31T13:00:59;3.25;;;1.70;;
22191;SDS011;11261;52.456;10.850;2023-07-31T13:03:28;2.60;;;1.48;;
22191;SDS011;11261;52.456;10.850;2023-07-31T13:05:57;2.30;;;1.35;;
22191;SDS011;11261;52.456;10.850;2023-07-31T13:08:26;1.80;;;1.25;;
22191;SDS011;11261;52.456;10.850;2023-07-31T13:10:55;2.88;;;1.58;;
22191;SDS011;11261;52.456;10.850;2023-07-31T13:13:23;2.85;;;1.60;;
22191;SDS011;11261;52.456;10.850;2023-07-31T13:15:51;1.42;;;1.00;;
22191;SDS011;11261;52.456;10.850;2023-07-31T13:18:20;3.05;;;1.52;;
22191;SDS011;11261;52.456;10.850;2023-07-31T13:20:48;3.85;;;1.40;;
22191;SDS011;11261;52.456;10.850;2023-07-31T13:23:17;1.65;;;1.05;;
22191;SDS011;11261;52.456;10.850;2023-07-31T13:25:46;3.45;;;1.20;;
22191;SDS011;11261;52.456;10.850;2023-07-31T13:28:14;2.72;;;1.30;;
22191;SDS011;11261;52.456;10.850;2023-07-31T13:30:43;2.10;;;1.10;;
22191;SDS011;11261;52.456;10.850;2023-07-31T13:33:12;2.15;;;1.23;;
22191;SDS011;11261;52.456;10.850;2023-07-31T13:36:00;2.65;;;1.48;;
22191;SDS011;11261;52.456;10.850;2023-07-31T13:38:29;2.17;;;1.23;;
22191;SDS011;11261;52.456;10.850;2023-07-31T13:40:58;1.83;;;0.70;;
22191;SDS011;11261;52.456;10.850;2023-07-31T13:43:26;1.60;;;1.42;;
22191;SDS011;11261;52.456;10.850;2023-07-31T13:45:55;1.13;;;1.02;;
22191;SDS011;11261;52.456;10.850;2023-07-31T13:48:23;1.08;;;0.95;;
22191;SDS011;11261;52.456;10.850;2023-07-31T13:50:51;1.85;;;1.20;;
22191;SDS011;11261;52.456;10.850;2023-07-31T13:53:19;2.65;;;1.35;;
22191;SDS011;11261;52.456;10.850;2023-07-31T13:55:47;1.38;;;1.10;;
22191;SDS011;11261;52.456;10.850;2023-07-31T13:58:17;1.30;;;1.17;;
22191;SDS011;11261;52.456;10.850;2023-07-31T14:00:46;2.83;;;1.42;;
22191;SDS011;11261;52.456;10.850;2023-07-31T14:03:14;1.70;;;1.23;;
22191;SDS011;11261;52.456;10.850;2023-07-31T14:05:42;4.30;;;1.48;;
22191;SDS011;11261;52.456;10.850;2023-07-31T14:08:10;1.92;;;1.17;;
22191;SDS011;11261;52.456;10.850;2023-07-31T14:10:39;2.58;;;1.10;;
22191;SDS011;11261;52.456;10.850;2023-07-31T14:13:07;1.75;;;1.00;;
22191;SDS011;11261;52.456;10.850;2023-07-31T14:15:36;1.40;;;0.75;;
22191;SDS011;11261;52.456;10.850;2023-07-31T14:18:05;1.15;;;0.90;;
22191;SDS011;11261;52.456;10.850;2023-07-31T14:20:34;1.80;;;1.20;;
22191;SDS011;11261;52.456;10.850;2023-07-31T14:23:02;1.35;;;0.98;;
22191;SDS011;11261;52.456;10.850;2023-07-31T14:25:31;1.88;;;1.00;;
22191;SDS011;11261;52.456;10.850;2023-07-31T14:27:59;2.10;;;1.00;;
22191;SDS011;11261;52.456;10.850;2023-07-31T14:30:27;1.10;;;0.85;;
22191;SDS011;11261;52.456;10.850;2023-07-31T14:32:57;1.70;;;0.77;;
22191;SDS011;11261;52.456;10.850;2023-07-31T14:35:27;1.95;;;0.70;;
22191;SDS011;11261;52.456;10.850;2023-07-31T14:37:55;1.52;;;0.73;;
22191;SDS011;11261;52.456;10.850;2023-07-31T14:40:23;1.13;;;0.77;;
22191;SDS011;11261;52.456;10.850;2023-07-31T14:42:52;1.10;;;0.60;;
22191;SDS011;11261;52.456;10.850;2023-07-31T14:45:20;1.98;;;0.47;;
22191;SDS011;11261;52.456;10.850;2023-07-31T14:47:48;0.50;;;0.50;;
22191;SDS011;11261;52.456;10.850;2023-07-31T14:50:19;0.93;;;0.55;;